createdAt,value
2017-03-24T00:00:12.390Z,92.00
2017-03-24T00:01:10.845Z,92.00
2017-03-24T00:02:10.082Z,92.20
2017-03-24T00:03:09.327Z,92.40
2017-03-24T00:04:08.189Z,92.40
2017-03-24T00:05:06.693Z,91.80
2017-03-24T00:06:05.965Z,92.20
2017-03-24T00:07:05.197Z,92.00
2017-03-24T00:08:03.718Z,92.00
2017-03-24T00:09:03.469Z,92.40
2017-03-24T00:10:02.328Z,93.10
2017-03-24T00:11:00.820Z,92.60
2017-03-24T00:11:59.279Z,92.30
2017-03-24T00:12:59.389Z,92.30
2017-03-24T00:13:57.843Z,93.00
2017-03-24T00:14:56.365Z,92.20
2017-03-24T00:15:55.165Z,92.60
2017-03-24T00:16:53.620Z,92.30
2017-03-24T00:17:52.946Z,92.30
2017-03-24T00:18:51.397Z,91.60
2017-03-24T00:19:50.665Z,91.30
2017-03-24T00:20:49.192Z,91.30
2017-03-24T00:21:48.701Z,91.30
2017-03-24T00:22:47.153Z,91.20
2017-03-24T00:23:46.400Z,91.10
2017-03-24T00:24:45.086Z,91.00
2017-03-24T00:25:44.312Z,91.80
2017-03-24T00:26:43.580Z,90.60
2017-03-24T00:27:43.197Z,90.60
2017-03-24T00:28:42.429Z,90.50
2017-03-24T00:29:41.652Z,90.50
2017-03-24T00:30:40.891Z,90.60
2017-03-24T00:31:40.108Z,91.10
2017-03-24T00:32:38.581Z,91.00
2017-03-24T00:33:38.189Z,90.80
2017-03-24T00:34:37.400Z,90.70
2017-03-24T00:35:35.886Z,90.70
2017-03-24T00:36:35.136Z,91.40
2017-03-24T00:37:33.720Z,91.40
2017-03-24T00:38:33.009Z,92.20
2017-03-24T00:39:32.547Z,91.20
2017-03-24T00:40:31.022Z,91.90
2017-03-24T00:41:29.468Z,91.30
2017-03-24T00:42:27.935Z,91.60
2017-03-24T00:43:26.415Z,90.70
2017-03-24T00:44:24.885Z,90.40
2017-03-24T00:45:23.744Z,90.50
2017-03-24T00:46:22.283Z,90.50
2017-03-24T00:47:21.573Z,90.00
2017-03-24T00:48:20.812Z,89.60
2017-03-24T00:49:19.294Z,89.60
2017-03-24T00:50:18.576Z,89.60
2017-03-24T00:51:18.261Z,90.00
2017-03-24T00:52:16.780Z,89.90
2017-03-24T00:53:16.020Z,89.60
2017-03-24T00:54:15.289Z,90.20
2017-03-24T00:55:13.761Z,89.60
2017-03-24T00:56:12.990Z,88.50
2017-03-24T00:57:11.780Z,88.80
2017-03-24T00:58:10.238Z,89.50
2017-03-24T00:59:08.726Z,89.60
2017-03-24T01:00:07.199Z,89.70
2017-03-24T01:01:06.495Z,89.90
2017-03-24T01:02:05.756Z,90.80
2017-03-24T01:03:04.621Z,90.00
2017-03-24T01:04:03.844Z,90.80
2017-03-24T01:05:03.225Z,90.40
2017-03-24T01:06:02.512Z,90.30
2017-03-24T01:07:01.828Z,90.20
2017-03-24T01:08:00.288Z,90.20
2017-03-24T01:08:59.907Z,91.00
2017-03-24T01:09:58.380Z,91.10
2017-03-24T01:10:57.652Z,90.50
2017-03-24T01:11:56.120Z,90.30
2017-03-24T01:12:55.389Z,90.30
2017-03-24T01:13:53.857Z,90.20
2017-03-24T01:14:52.745Z,90.30
2017-03-24T01:15:51.223Z,91.10
2017-03-24T01:16:49.721Z,90.80
2017-03-24T01:17:48.945Z,91.50
2017-03-24T01:18:47.422Z,91.50
2017-03-24T01:19:45.953Z,92.50
2017-03-24T01:20:45.479Z,92.20
2017-03-24T01:21:43.962Z,92.20
2017-03-24T01:22:42.450Z,92.60
2017-03-24T01:23:40.909Z,92.80
2017-03-24T01:24:40.192Z,92.70
2017-03-24T01:25:39.486Z,92.40
2017-03-24T01:26:39.148Z,92.20
2017-03-24T01:27:37.625Z,92.10
2017-03-24T01:28:36.106Z,92.20
2017-03-24T01:29:35.350Z,91.60
2017-03-24T01:30:34.588Z,91.50
2017-03-24T01:31:33.822Z,91.40
2017-03-24T01:32:32.590Z,91.40
2017-03-24T01:33:31.056Z,91.50
2017-03-24T01:34:30.272Z,92.10
2017-03-24T01:35:28.737Z,92.00
2017-03-24T01:36:27.973Z,90.90
2017-03-24T01:37:26.441Z,91.90
2017-03-24T01:38:26.037Z,91.00
2017-03-24T01:39:25.296Z,90.90
2017-03-24T01:40:23.772Z,90.80
2017-03-24T01:41:22.261Z,90.90
2017-03-24T01:42:21.549Z,90.90
2017-03-24T01:43:20.776Z,90.60
2017-03-24T01:44:20.292Z,90.90
2017-03-24T01:45:19.531Z,91.10
2017-03-24T01:46:18.786Z,91.60
2017-03-24T01:47:17.260Z,91.60
2017-03-24T01:48:15.757Z,91.70
2017-03-24T01:49:14.235Z,91.90
2017-03-24T01:50:13.795Z,91.70
2017-03-24T01:51:12.265Z,91.70
2017-03-24T01:52:10.723Z,91.60
2017-03-24T01:53:09.211Z,91.50
2017-03-24T01:54:08.526Z,92.10
2017-03-24T01:55:07.037Z,92.10
2017-03-24T01:56:05.873Z,92.70
2017-03-24T01:57:04.424Z,93.10
2017-03-24T01:58:02.891Z,92.90
2017-03-24T01:59:01.377Z,92.60
2017-03-24T02:00:00.601Z,92.80
2017-03-24T02:00:59.869Z,92.90
2017-03-24T02:01:58.713Z,92.90
2017-03-24T02:02:57.957Z,92.40
2017-03-24T02:03:57.197Z,92.60
2017-03-24T02:04:55.661Z,92.60
2017-03-24T02:05:55.641Z,92.50
2017-03-24T02:06:54.872Z,92.90
2017-03-24T02:07:54.456Z,93.00
2017-03-24T02:08:52.950Z,93.00
2017-03-24T02:09:52.204Z,92.80
2017-03-24T02:10:54.164Z,92.80
2017-03-24T02:11:53.444Z,92.10
2017-03-24T02:12:52.693Z,92.40
2017-03-24T02:13:51.445Z,92.30
2017-03-24T02:14:49.922Z,92.80
2017-03-24T02:15:48.374Z,92.80
2017-03-24T02:16:47.652Z,92.80
2017-03-24T02:17:46.134Z,92.80
2017-03-24T02:18:45.369Z,92.40
2017-03-24T02:19:45.517Z,92.50
2017-03-24T02:20:43.972Z,92.50
2017-03-24T02:21:42.465Z,93.00
2017-03-24T02:22:40.938Z,93.20
2017-03-24T02:23:39.403Z,93.20
2017-03-24T02:24:37.944Z,93.10
2017-03-24T02:25:37.452Z,93.90
2017-03-24T02:26:35.959Z,93.90
2017-03-24T02:27:35.197Z,94.10
2017-03-24T02:28:34.430Z,93.70
2017-03-24T02:29:32.890Z,93.70
2017-03-24T02:30:31.354Z,93.40
2017-03-24T02:31:30.237Z,93.70
2017-03-24T02:32:28.689Z,94.00
2017-03-24T02:33:27.899Z,93.40
2017-03-24T02:34:26.371Z,94.00
2017-03-24T02:35:24.827Z,93.60
2017-03-24T02:36:23.296Z,93.20
2017-03-24T02:37:22.075Z,93.20
2017-03-24T02:38:20.597Z,93.10
2017-03-24T02:39:19.969Z,92.90
2017-03-24T02:40:18.428Z,92.90
2017-03-24T02:41:16.904Z,92.80
2017-03-24T02:42:16.166Z,92.50
2017-03-24T02:43:15.735Z,92.60
2017-03-24T02:44:14.188Z,92.60
2017-03-24T02:45:13.428Z,92.30
2017-03-24T02:46:12.920Z,92.10
2017-03-24T02:47:12.173Z,92.40
2017-03-24T02:48:10.644Z,92.30
2017-03-24T02:49:10.465Z,93.20
2017-03-24T02:50:09.748Z,91.90
2017-03-24T02:51:08.492Z,91.90
2017-03-24T02:52:07.815Z,92.50
2017-03-24T02:53:07.087Z,92.30
2017-03-24T02:54:06.354Z,92.50
2017-03-24T02:55:05.936Z,92.20
2017-03-24T02:56:05.194Z,92.40
2017-03-24T02:57:03.653Z,92.50
2017-03-24T02:58:02.144Z,91.80
2017-03-24T02:59:01.401Z,91.90
2017-03-24T02:59:59.886Z,91.80
2017-03-24T03:00:58.654Z,92.10
2017-03-24T03:01:57.142Z,92.60
2017-03-24T03:02:55.617Z,92.70
2017-03-24T03:03:54.092Z,93.00
2017-03-24T03:04:53.382Z,92.10
2017-03-24T03:05:52.616Z,92.60
2017-03-24T03:06:51.408Z,92.60
2017-03-24T03:07:49.873Z,92.90
2017-03-24T03:08:48.417Z,92.50
2017-03-24T03:09:47.642Z,93.10
2017-03-24T03:10:46.869Z,92.50
2017-03-24T03:11:45.342Z,92.50
2017-03-24T03:12:44.929Z,92.40
2017-03-24T03:13:43.402Z,92.40
2017-03-24T03:14:42.660Z,91.90
2017-03-24T03:15:41.104Z,91.90
2017-03-24T03:16:40.360Z,92.30
2017-03-24T03:17:38.824Z,92.30
2017-03-24T03:18:37.764Z,92.20
2017-03-24T03:19:36.230Z,92.00
2017-03-24T03:20:34.689Z,91.80
2017-03-24T03:21:33.944Z,91.50
2017-03-24T03:22:33.200Z,91.30
2017-03-24T03:23:31.689Z,91.30
2017-03-24T03:24:31.219Z,91.50
2017-03-24T03:25:29.708Z,91.50
2017-03-24T03:26:28.170Z,91.30
2017-03-24T03:27:26.640Z,91.30
2017-03-24T03:28:25.897Z,91.50
2017-03-24T03:29:24.349Z,91.60
2017-03-24T03:30:23.200Z,91.80
2017-03-24T03:31:21.724Z,91.60
2017-03-24T03:32:20.209Z,91.20
2017-03-24T03:33:19.489Z,92.20
2017-03-24T03:34:17.947Z,91.40
2017-03-24T03:35:16.432Z,91.40
2017-03-24T03:36:15.962Z,92.00
2017-03-24T03:37:15.188Z,92.00
2017-03-24T03:38:13.669Z,92.00
2017-03-24T03:39:12.897Z,92.00
2017-03-24T03:40:11.388Z,92.10
2017-03-24T03:41:09.874Z,91.80
2017-03-24T03:42:08.707Z,91.60
2017-03-24T03:43:07.193Z,91.60
2017-03-24T03:44:06.461Z,92.10
2017-03-24T03:45:04.948Z,92.20
2017-03-24T03:46:03.410Z,91.70
2017-03-24T03:47:01.897Z,92.70
2017-03-24T03:48:00.725Z,93.10
2017-03-24T03:48:59.176Z,93.20
2017-03-24T03:49:58.420Z,92.80
2017-03-24T03:50:57.685Z,92.60
2017-03-24T03:51:56.144Z,92.50
2017-03-24T03:52:55.557Z,92.40
2017-03-24T03:53:54.377Z,92.20
2017-03-24T03:54:53.628Z,92.30
2017-03-24T03:55:52.089Z,92.40
2017-03-24T03:56:51.308Z,92.40
2017-03-24T03:57:50.629Z,92.30
2017-03-24T03:58:49.100Z,92.30
2017-03-24T03:59:48.749Z,92.20
2017-03-24T04:00:47.976Z,92.00
2017-03-24T04:01:47.276Z,92.00
2017-03-24T04:02:46.492Z,92.10
2017-03-24T04:03:44.969Z,92.00
2017-03-24T04:04:43.461Z,92.10
2017-03-24T04:05:43.004Z,92.00
2017-03-24T04:06:41.469Z,92.10
2017-03-24T04:07:40.013Z,91.80
2017-03-24T04:08:38.557Z,91.50
2017-03-24T04:09:37.018Z,91.80
2017-03-24T04:10:35.489Z,91.70
2017-03-24T04:11:35.033Z,91.10
2017-03-24T04:12:33.493Z,91.10
2017-03-24T04:13:32.724Z,91.10
2017-03-24T04:14:31.953Z,91.00
2017-03-24T04:15:31.200Z,90.60
2017-03-24T04:16:30.433Z,91.00
2017-03-24T04:17:30.184Z,90.30
2017-03-24T04:18:29.419Z,91.40
2017-03-24T04:19:28.650Z,91.60
2017-03-24T04:20:27.910Z,91.20
2017-03-24T04:21:26.392Z,91.20
2017-03-24T04:22:25.661Z,90.40
2017-03-24T04:23:25.208Z,91.20
2017-03-24T04:24:23.673Z,90.40
2017-03-24T04:25:22.149Z,90.70
2017-03-24T04:26:20.693Z,90.80
2017-03-24T04:27:19.937Z,91.00
2017-03-24T04:28:19.189Z,91.10
2017-03-24T04:29:18.425Z,90.40
2017-03-24T04:30:16.936Z,90.20
2017-03-24T04:31:15.415Z,90.30
2017-03-24T04:32:14.664Z,90.70
2017-03-24T04:33:13.897Z,90.50
2017-03-24T04:34:13.193Z,90.40
2017-03-24T04:35:12.728Z,90.80
2017-03-24T04:36:11.188Z,90.70
2017-03-24T04:37:09.652Z,90.80
2017-03-24T04:38:08.132Z,91.10
2017-03-24T04:39:07.364Z,91.00
2017-03-24T04:40:06.604Z,91.40
2017-03-24T04:41:05.366Z,91.40
2017-03-24T04:42:03.839Z,91.50
2017-03-24T04:43:03.068Z,91.60
2017-03-24T04:44:01.553Z,91.50
2017-03-24T04:45:00.024Z,91.80
2017-03-24T04:45:58.488Z,91.60
2017-03-24T04:46:57.280Z,91.80
2017-03-24T04:47:55.743Z,91.80
2017-03-24T04:48:54.261Z,91.70
2017-03-24T04:49:53.513Z,91.90
2017-03-24T04:50:52.354Z,91.90
2017-03-24T04:51:51.685Z,91.80
2017-03-24T04:52:51.237Z,91.60
2017-03-24T04:53:50.472Z,91.90
2017-03-24T04:54:49.765Z,92.20
2017-03-24T04:55:48.991Z,91.90
2017-03-24T04:56:47.496Z,91.90
2017-03-24T04:57:46.730Z,91.70
2017-03-24T04:58:46.441Z,91.80
2017-03-24T04:59:44.917Z,91.90
2017-03-24T05:00:43.392Z,92.20
2017-03-24T05:01:41.915Z,91.80
2017-03-24T05:02:40.425Z,92.20
2017-03-24T05:03:38.905Z,92.00
2017-03-24T05:04:38.424Z,91.10
2017-03-24T05:05:37.668Z,90.80
2017-03-24T05:06:36.896Z,90.70
2017-03-24T05:07:36.140Z,90.90
2017-03-24T05:08:35.416Z,91.00
2017-03-24T05:09:34.649Z,91.50
2017-03-24T05:10:34.188Z,91.20
2017-03-24T05:11:33.403Z,91.40
2017-03-24T05:12:32.646Z,91.70
2017-03-24T05:13:31.249Z,91.70
2017-03-24T05:14:30.539Z,91.90
2017-03-24T05:15:29.002Z,91.90
2017-03-24T05:16:27.745Z,91.90
2017-03-24T05:17:26.254Z,91.60
2017-03-24T05:18:24.723Z,91.80
2017-03-24T05:19:24.024Z,91.80
2017-03-24T05:20:22.532Z,91.70
2017-03-24T05:21:21.089Z,91.50
2017-03-24T05:22:19.948Z,91.90
2017-03-24T05:23:18.413Z,91.60
2017-03-24T05:24:16.905Z,91.60
2017-03-24T05:25:16.160Z,92.10
2017-03-24T05:26:14.616Z,92.10
2017-03-24T05:27:13.109Z,92.40
2017-03-24T05:28:12.669Z,92.30
2017-03-24T05:29:11.132Z,92.20
2017-03-24T05:30:09.611Z,93.20
2017-03-24T05:31:08.097Z,92.70
2017-03-24T05:32:07.345Z,92.20
2017-03-24T05:33:05.809Z,92.20
2017-03-24T05:34:04.769Z,93.10
2017-03-24T05:35:03.241Z,93.40
2017-03-24T05:36:01.703Z,93.00
2017-03-24T05:37:00.264Z,92.90
2017-03-24T05:37:59.513Z,93.00
2017-03-24T05:38:58.796Z,92.90
2017-03-24T05:39:58.437Z,92.50
2017-03-24T05:40:56.906Z,92.60
2017-03-24T05:41:55.456Z,92.10
2017-03-24T05:42:54.674Z,90.30
2017-03-24T05:43:53.124Z,90.20
2017-03-24T05:44:51.569Z,90.50
2017-03-24T05:45:50.365Z,90.70
2017-03-24T05:46:49.672Z,90.10
2017-03-24T05:47:48.893Z,89.70
2017-03-24T05:48:48.125Z,90.00
2017-03-24T05:49:46.580Z,90.00
2017-03-24T05:50:45.039Z,90.00
2017-03-24T05:51:43.893Z,90.00
2017-03-24T05:52:42.425Z,89.50
2017-03-24T05:53:41.671Z,89.20
2017-03-24T05:54:40.175Z,89.20
2017-03-24T05:55:38.713Z,89.30
2017-03-24T05:56:38.052Z,88.30
2017-03-24T05:57:36.805Z,88.30
2017-03-24T05:58:36.042Z,87.80
2017-03-24T05:59:35.426Z,87.50
2017-03-24T06:00:34.684Z,87.70
2017-03-24T06:01:33.139Z,87.70
2017-03-24T06:02:31.637Z,87.30
2017-03-24T06:03:30.400Z,87.60
2017-03-24T06:04:28.912Z,87.70
2017-03-24T06:05:27.369Z,88.50
2017-03-24T06:06:26.608Z,88.00
2017-03-24T06:07:25.097Z,88.00
2017-03-24T06:08:23.572Z,88.60
2017-03-24T06:09:23.139Z,88.00
2017-03-24T06:10:21.662Z,88.00
2017-03-24T06:11:20.124Z,87.40
2017-03-24T06:12:18.612Z,86.80
2017-03-24T06:13:17.081Z,86.60
2017-03-24T06:14:16.301Z,87.10
2017-03-24T06:15:15.144Z,87.10
2017-03-24T06:16:13.622Z,86.10
2017-03-24T06:17:12.869Z,86.50
2017-03-24T06:18:11.385Z,86.50
2017-03-24T06:19:09.877Z,87.00
2017-03-24T06:20:09.128Z,87.00
2017-03-24T06:21:08.692Z,87.10
2017-03-24T06:22:07.194Z,87.10
2017-03-24T06:23:05.681Z,86.10
2017-03-24T06:24:04.928Z,86.00
2017-03-24T06:25:04.972Z,86.10
2017-03-24T06:26:04.268Z,86.70
2017-03-24T06:27:03.070Z,86.80
2017-03-24T06:28:01.531Z,87.00
2017-03-24T06:28:59.995Z,87.30
2017-03-24T06:29:58.473Z,87.00
2017-03-24T06:30:57.697Z,86.80
2017-03-24T06:31:56.984Z,86.70
2017-03-24T06:32:56.516Z,87.40
2017-03-24T06:33:55.048Z,87.40
2017-03-24T06:34:53.504Z,87.20
2017-03-24T06:35:52.771Z,86.70
2017-03-24T06:36:51.217Z,86.50
2017-03-24T06:37:49.692Z,86.60
2017-03-24T06:38:48.536Z,86.80
2017-03-24T06:39:47.024Z,86.10
2017-03-24T06:40:45.497Z,85.60
2017-03-24T06:41:43.970Z,85.40
2017-03-24T06:42:42.433Z,85.50
2017-03-24T06:43:40.883Z,85.40
2017-03-24T06:44:40.449Z,83.90
2017-03-24T06:45:38.919Z,84.10
2017-03-24T06:46:37.398Z,84.00
2017-03-24T06:47:36.617Z,84.20
2017-03-24T06:48:35.870Z,84.70
2017-03-24T06:49:34.354Z,84.70
2017-03-24T06:50:34.004Z,85.20
2017-03-24T06:51:32.473Z,85.20
2017-03-24T06:52:31.695Z,86.10
2017-03-24T06:53:30.917Z,85.90
2017-03-24T06:54:29.409Z,85.90
2017-03-24T06:55:27.901Z,84.90
2017-03-24T06:56:27.436Z,84.90
2017-03-24T06:57:26.674Z,83.20
2017-03-24T06:58:25.948Z,82.50
2017-03-24T06:59:24.448Z,82.40
2017-03-24T07:00:22.932Z,82.10
2017-03-24T07:01:21.477Z,81.20
2017-03-24T07:02:21.148Z,80.30
2017-03-24T07:03:19.657Z,80.30
2017-03-24T07:04:18.129Z,79.70
2017-03-24T07:05:16.668Z,79.10
2017-03-24T07:06:15.217Z,79.50
2017-03-24T07:07:14.450Z,80.00
2017-03-24T07:08:13.334Z,79.30
2017-03-24T07:09:12.569Z,77.80
2017-03-24T07:10:11.825Z,77.40
2017-03-24T07:11:11.081Z,77.40
2017-03-24T07:12:09.666Z,77.40
2017-03-24T07:13:08.169Z,77.20
2017-03-24T07:14:07.809Z,78.60
2017-03-24T07:15:06.328Z,78.60
2017-03-24T07:16:05.614Z,79.50
2017-03-24T07:17:04.897Z,78.00
2017-03-24T07:18:04.209Z,78.20
2017-03-24T07:19:03.460Z,78.70
2017-03-24T07:20:03.018Z,77.50
2017-03-24T07:21:01.477Z,77.40
2017-03-24T07:22:00.701Z,76.60
2017-03-24T07:23:00.167Z,76.30
2017-03-24T07:23:58.620Z,76.30
2017-03-24T07:24:57.097Z,77.00
2017-03-24T07:25:56.793Z,75.20
2017-03-24T07:26:56.032Z,73.20
2017-03-24T07:27:54.493Z,73.20
2017-03-24T07:28:53.725Z,72.10
2017-03-24T07:29:52.956Z,71.80
2017-03-24T07:30:51.472Z,71.40
2017-03-24T07:31:51.021Z,70.10
2017-03-24T07:32:49.500Z,70.10
2017-03-24T07:33:48.720Z,68.00
2017-03-24T07:34:48.012Z,63.30
2017-03-24T07:35:47.285Z,60.30
2017-03-24T07:36:46.532Z,58.80
2017-03-24T07:37:45.420Z,58.70
2017-03-24T07:38:43.932Z,56.80
2017-03-24T07:39:42.424Z,55.00
2017-03-24T07:40:40.880Z,52.90
2017-03-24T07:41:40.141Z,48.60
2017-03-24T07:42:39.402Z,46.90
2017-03-24T07:43:39.049Z,45.90
2017-03-24T07:44:37.513Z,45.90
2017-03-24T07:45:35.993Z,44.70
2017-03-24T07:46:35.247Z,42.20
2017-03-24T07:47:38.950Z,42.30
2017-03-24T07:48:37.444Z,43.10
2017-03-24T07:49:41.651Z,42.90
2017-03-24T07:50:41.092Z,40.20
2017-03-24T07:51:39.565Z,40.20
2017-03-24T07:52:38.019Z,39.00
2017-03-24T07:53:37.340Z,39.40
2017-03-24T07:54:35.802Z,39.30
2017-03-24T07:55:34.694Z,39.40
2017-03-24T07:56:33.161Z,40.70
2017-03-24T07:57:31.658Z,40.60
2017-03-24T07:58:30.496Z,39.60
2017-03-24T07:59:29.728Z,39.00
2017-03-24T08:00:28.197Z,39.00
2017-03-24T08:01:26.980Z,38.80
2017-03-24T08:02:26.333Z,36.80
2017-03-24T08:03:24.816Z,36.70
2017-03-24T08:04:24.094Z,36.60
2017-03-24T08:05:22.624Z,36.60
2017-03-24T08:06:21.128Z,36.90
2017-03-24T08:07:19.929Z,37.30
2017-03-24T08:08:18.395Z,39.40
2017-03-24T08:09:16.992Z,39.90
2017-03-24T08:10:15.492Z,41.10
2017-03-24T08:11:14.095Z,42.20
2017-03-24T08:12:12.573Z,42.70
2017-03-24T08:13:11.425Z,44.40
2017-03-24T08:14:09.952Z,43.40
2017-03-24T08:15:08.464Z,45.10
2017-03-24T08:16:07.780Z,46.80
2017-03-24T08:17:07.036Z,48.40
2017-03-24T08:18:06.251Z,47.30
2017-03-24T08:19:05.803Z,47.00
2017-03-24T08:20:04.320Z,46.40
2017-03-24T08:21:03.547Z,46.50
2017-03-24T08:22:02.033Z,46.50
2017-03-24T08:23:00.539Z,45.60
2017-03-24T08:23:58.996Z,45.20
2017-03-24T08:24:58.631Z,44.70
2017-03-24T08:25:57.087Z,44.50
2017-03-24T08:26:55.540Z,41.60
2017-03-24T08:27:54.788Z,39.30
2017-03-24T08:28:53.249Z,39.30
2017-03-24T08:29:51.688Z,39.00
2017-03-24T08:30:51.255Z,36.70
2017-03-24T08:31:49.708Z,36.70
2017-03-24T08:32:48.999Z,36.60
2017-03-24T08:33:47.527Z,36.60
2017-03-24T08:34:46.056Z,36.60
2017-03-24T08:35:44.513Z,36.00
2017-03-24T08:36:43.331Z,35.30
2017-03-24T08:37:42.648Z,34.00
2017-03-24T08:38:41.887Z,33.50
2017-03-24T08:39:41.134Z,32.40
2017-03-24T08:40:39.593Z,32.10
2017-03-24T08:41:38.861Z,34.30
2017-03-24T08:42:38.391Z,32.30
2017-03-24T08:43:36.847Z,32.20
2017-03-24T08:44:36.076Z,30.60
2017-03-24T08:45:35.341Z,30.70
2017-03-24T08:46:33.816Z,30.60
2017-03-24T08:47:33.060Z,31.80
2017-03-24T08:48:32.640Z,30.90
2017-03-24T08:49:31.864Z,30.40
2017-03-24T08:50:30.345Z,30.40
2017-03-24T08:51:29.592Z,29.70
2017-03-24T08:52:28.848Z,29.60
2017-03-24T08:53:27.380Z,29.60
2017-03-24T08:54:26.292Z,29.10
2017-03-24T08:55:24.764Z,28.70
2017-03-24T08:56:23.288Z,27.10
2017-03-24T08:57:22.652Z,26.90
2017-03-24T08:58:21.883Z,27.30
2017-03-24T08:59:21.201Z,29.10
2017-03-24T09:00:20.761Z,27.80
2017-03-24T09:01:20.399Z,26.90
2017-03-24T09:02:19.645Z,28.00
2017-03-24T09:03:18.109Z,28.00
2017-03-24T09:04:17.380Z,28.80
2017-03-24T09:05:16.639Z,29.50
2017-03-24T09:06:16.267Z,30.40
2017-03-24T09:07:14.885Z,30.40
2017-03-24T09:08:14.144Z,30.40
2017-03-24T09:09:12.651Z,30.30
2017-03-24T09:10:11.886Z,28.90
2017-03-24T09:11:10.352Z,28.90
2017-03-24T09:12:10.638Z,29.70
2017-03-24T09:13:09.868Z,29.60
2017-03-24T09:14:09.127Z,29.50
2017-03-24T09:15:08.661Z,30.90
2017-03-24T09:16:07.884Z,29.50
2017-03-24T09:17:07.112Z,29.00
2017-03-24T09:18:06.660Z,30.80
2017-03-24T09:19:05.149Z,30.80
2017-03-24T09:20:03.619Z,30.00
2017-03-24T09:21:02.068Z,29.50
2017-03-24T09:22:01.315Z,28.50
2017-03-24T09:22:59.760Z,28.50
2017-03-24T09:23:59.263Z,27.50
2017-03-24T09:24:57.780Z,27.40
2017-03-24T09:25:56.241Z,25.90
2017-03-24T09:26:55.492Z,27.00
2017-03-24T09:27:54.736Z,27.70
2017-03-24T09:28:54.016Z,28.60
2017-03-24T09:29:53.548Z,30.10
2017-03-24T09:30:52.796Z,30.70
2017-03-24T09:31:52.014Z,29.90
2017-03-24T09:32:51.255Z,29.80
2017-03-24T09:33:50.462Z,29.70
2017-03-24T09:34:48.922Z,29.60
2017-03-24T09:35:47.652Z,30.00
2017-03-24T09:36:46.108Z,31.10
2017-03-24T09:37:44.574Z,30.40
2017-03-24T09:38:43.019Z,29.40
2017-03-24T09:39:41.463Z,31.10
2017-03-24T09:40:39.956Z,29.60
2017-03-24T09:41:39.468Z,28.50
2017-03-24T09:42:38.696Z,27.20
2017-03-24T09:43:37.914Z,27.50
2017-03-24T09:44:36.401Z,27.50
2017-03-24T09:45:34.992Z,28.30
2017-03-24T09:46:34.231Z,26.90
2017-03-24T09:47:32.992Z,26.90
2017-03-24T09:48:31.436Z,27.30
2017-03-24T09:49:30.640Z,27.20
2017-03-24T09:50:29.854Z,27.20
2017-03-24T09:51:29.124Z,26.70
2017-03-24T09:52:27.593Z,26.70
2017-03-24T09:53:26.472Z,27.30
2017-03-24T09:54:24.932Z,26.60
2017-03-24T09:55:23.426Z,26.30
2017-03-24T09:56:22.677Z,26.00
2017-03-24T09:57:21.136Z,26.00
2017-03-24T09:58:19.624Z,27.60
2017-03-24T09:59:19.172Z,29.40
2017-03-24T10:00:17.775Z,29.30
2017-03-24T10:01:17.028Z,28.90
2017-03-24T10:02:16.268Z,28.20
2017-03-24T10:03:15.524Z,27.30
2017-03-24T10:04:14.807Z,26.40
2017-03-24T10:05:13.543Z,26.70
2017-03-24T10:06:12.004Z,25.80
2017-03-24T10:07:10.460Z,26.70
2017-03-24T10:08:09.716Z,26.80
2017-03-24T10:09:08.196Z,26.70
2017-03-24T10:10:06.692Z,26.90
2017-03-24T10:11:06.268Z,26.40
2017-03-24T10:12:04.716Z,26.30
2017-03-24T10:13:03.171Z,26.80
2017-03-24T10:14:02.422Z,26.70
2017-03-24T10:15:00.871Z,26.70
2017-03-24T10:15:59.315Z,26.30
2017-03-24T10:16:58.941Z,28.20
2017-03-24T10:17:57.383Z,28.10
2017-03-24T10:18:55.849Z,28.10
2017-03-24T10:19:55.072Z,27.50
2017-03-24T10:20:54.328Z,26.80
2017-03-24T10:21:53.548Z,27.10
2017-03-24T10:22:53.065Z,27.30
2017-03-24T10:23:51.548Z,27.30
2017-03-24T10:24:50.006Z,27.20
2017-03-24T10:25:48.459Z,26.40
2017-03-24T10:26:46.927Z,27.40
2017-03-24T10:27:46.139Z,28.70
2017-03-24T10:28:44.892Z,28.70
2017-03-24T10:29:44.133Z,28.60
2017-03-24T10:30:43.374Z,30.80
2017-03-24T10:31:42.583Z,28.80
2017-03-24T10:32:41.800Z,28.60
2017-03-24T10:33:40.248Z,28.30
2017-03-24T10:34:39.148Z,28.00
2017-03-24T10:35:37.636Z,26.40
2017-03-24T10:36:36.864Z,26.60
2017-03-24T10:37:35.348Z,26.50
2017-03-24T10:38:33.792Z,26.50
2017-03-24T10:39:33.016Z,24.70
2017-03-24T10:40:32.527Z,24.40
2017-03-24T10:41:31.023Z,24.40
2017-03-24T10:42:30.271Z,24.00
2017-03-24T10:43:28.740Z,24.10
2017-03-24T10:44:27.184Z,23.60
2017-03-24T10:45:25.660Z,22.90
2017-03-24T10:46:24.513Z,21.80
2017-03-24T10:47:23.765Z,23.90
2017-03-24T10:48:23.084Z,23.60
2017-03-24T10:49:21.569Z,23.50
2017-03-24T10:50:20.794Z,25.40
2017-03-24T10:51:21.200Z,24.20
2017-03-24T10:52:20.748Z,24.30
2017-03-24T10:53:19.976Z,23.90
2017-03-24T10:54:19.205Z,23.30
2017-03-24T10:55:17.670Z,23.20
2017-03-24T10:56:16.148Z,24.50
2017-03-24T10:57:14.655Z,24.20
2017-03-24T10:58:14.184Z,25.10
2017-03-24T10:59:12.652Z,25.00
2017-03-24T11:00:11.130Z,25.10
2017-03-24T11:01:09.576Z,27.00
2017-03-24T11:02:08.811Z,27.60
2017-03-24T11:03:08.021Z,26.40
2017-03-24T11:04:06.752Z,26.40
2017-03-24T11:05:05.251Z,25.90
2017-03-24T11:06:04.480Z,25.30
2017-03-24T11:07:02.948Z,25.40
2017-03-24T11:08:02.166Z,24.50
2017-03-24T11:09:01.405Z,26.10
2017-03-24T11:10:00.901Z,26.40
2017-03-24T11:11:00.171Z,25.20
2017-03-24T11:11:58.639Z,25.20
2017-03-24T11:12:57.145Z,25.60
2017-03-24T11:13:56.400Z,24.20
2017-03-24T11:14:54.852Z,24.20
2017-03-24T11:15:54.427Z,24.50
2017-03-24T11:16:52.872Z,24.50
2017-03-24T11:17:52.099Z,25.80
2017-03-24T11:18:50.855Z,25.80
2017-03-24T11:19:50.092Z,24.10
2017-03-24T11:20:49.328Z,25.30
2017-03-24T11:21:48.085Z,25.30
2017-03-24T11:22:46.544Z,25.00
2017-03-24T11:23:45.019Z,25.40
2017-03-24T11:24:43.476Z,24.10
2017-03-24T11:25:41.920Z,25.80
2017-03-24T11:26:40.364Z,25.00
2017-03-24T11:27:39.904Z,26.80
2017-03-24T11:28:39.124Z,26.90
2017-03-24T11:29:38.413Z,25.00
2017-03-24T11:30:37.636Z,26.30
2017-03-24T11:31:36.089Z,26.30
2017-03-24T11:32:35.309Z,27.40
2017-03-24T11:33:34.168Z,27.40
2017-03-24T11:34:32.628Z,26.30
2017-03-24T11:35:31.100Z,26.50
2017-03-24T11:36:29.575Z,26.60
2017-03-24T11:37:28.887Z,25.70
2017-03-24T11:38:27.336Z,25.70
2017-03-24T11:39:26.192Z,26.40
2017-03-24T11:40:24.700Z,26.40
2017-03-24T11:41:23.975Z,26.80
2017-03-24T11:42:22.448Z,26.70
2017-03-24T11:43:20.949Z,28.10
2017-03-24T11:44:19.504Z,28.40
2017-03-24T11:45:19.123Z,26.00
2017-03-24T11:46:17.588Z,26.00
2017-03-24T11:47:16.044Z,27.60
2017-03-24T11:48:15.288Z,26.90
2017-03-24T11:49:14.580Z,27.40
2017-03-24T11:50:13.847Z,29.20
2017-03-24T11:51:12.676Z,29.10
2017-03-24T11:52:11.192Z,27.90
2017-03-24T11:53:10.419Z,27.20
2017-03-24T11:54:08.892Z,27.20
2017-03-24T11:55:07.360Z,27.50
2017-03-24T11:56:06.611Z,28.10
2017-03-24T11:57:05.421Z,28.10
2017-03-24T11:58:03.881Z,26.70
2017-03-24T11:59:02.340Z,28.20
2017-03-24T12:00:00.861Z,28.90
2017-03-24T12:01:00.148Z,27.10
2017-03-24T12:01:59.351Z,27.10
2017-03-24T12:02:58.863Z,25.60
2017-03-24T12:03:57.320Z,25.60
2017-03-24T12:04:56.589Z,27.40
2017-03-24T12:05:55.800Z,26.70
2017-03-24T12:06:54.265Z,26.60
2017-03-24T12:07:52.715Z,26.50
2017-03-24T12:08:51.492Z,27.50
2017-03-24T12:09:50.760Z,28.50
2017-03-24T12:10:49.209Z,28.50
2017-03-24T12:11:47.656Z,28.60
2017-03-24T12:12:46.248Z,28.90
2017-03-24T12:13:44.723Z,29.30
2017-03-24T12:14:43.464Z,29.20
2017-03-24T12:15:42.706Z,29.40
2017-03-24T12:16:41.928Z,30.80
2017-03-24T12:17:41.131Z,30.00
2017-03-24T12:18:40.372Z,30.40
2017-03-24T12:19:38.832Z,30.40
2017-03-24T12:20:37.685Z,31.10
2017-03-24T12:21:36.924Z,32.00
2017-03-24T12:22:36.159Z,30.60
2017-03-24T12:23:34.769Z,30.50
2017-03-24T12:24:34.061Z,29.10
2017-03-24T12:25:32.512Z,29.00
2017-03-24T12:26:32.037Z,28.50
2017-03-24T12:27:30.476Z,28.40
2017-03-24T12:28:29.698Z,28.90
2017-03-24T12:29:28.144Z,28.90
2017-03-24T12:30:26.676Z,28.20
2017-03-24T12:31:25.985Z,27.60
2017-03-24T12:32:24.929Z,27.50
2017-03-24T12:33:24.145Z,28.30
2017-03-24T12:34:23.398Z,27.80
2017-03-24T12:35:21.852Z,27.80
2017-03-24T12:36:20.734Z,26.70
2017-03-24T12:37:19.959Z,27.90
2017-03-24T12:38:18.847Z,27.20